createdAt,value
2023-03-05T00:00:25.658Z,56.72
2023-03-05T00:01:25.643Z,58.33
2023-03-05T00:02:25.659Z,60.59
2023-03-05T00:03:25.645Z,57.52
2023-03-05T00:04:25.619Z,58.49
2023-03-05T00:05:25.610Z,59.14
2023-03-05T00:06:25.605Z,59.14
2023-03-05T00:07:25.610Z,58.33
2023-03-05T00:08:25.617Z,59.46
2023-03-05T00:09:25.567Z,59.46
2023-03-05T00:10:25.561Z,56.88
2023-03-05T00:11:25.553Z,56.07
2023-03-05T00:12:25.565Z,56.40
2023-03-05T00:13:25.568Z,57.20
2023-03-05T00:14:25.549Z,56.56
2023-03-05T00:15:25.533Z,58.49
2023-03-05T00:16:25.567Z,56.56
2023-03-05T00:17:25.537Z,59.62
2023-03-05T00:18:25.501Z,55.27
2023-03-05T00:19:25.497Z,57.04
2023-03-05T00:20:25.480Z,58.17
2023-03-05T00:21:25.477Z,58.97
2023-03-05T00:22:25.485Z,56.88
2023-03-05T00:23:25.454Z,55.43
2023-03-05T00:24:25.450Z,55.43
2023-03-05T00:25:25.433Z,56.88
2023-03-05T00:26:26.540Z,55.75
2023-03-05T00:27:25.439Z,54.79
2023-03-05T00:28:25.419Z,58.65
2023-03-05T00:29:25.414Z,58.97
2023-03-05T00:30:25.460Z,57.36
2023-03-05T00:31:25.436Z,57.20
2023-03-05T00:32:25.501Z,55.59
2023-03-05T00:33:25.381Z,57.04
2023-03-05T00:34:25.370Z,60.26
2023-03-05T00:35:25.389Z,57.69
2023-03-05T00:36:25.345Z,57.36
2023-03-05T00:37:25.360Z,59.78
2023-03-05T00:38:25.331Z,58.01
2023-03-05T00:39:25.329Z,58.17
2023-03-05T00:40:25.366Z,58.01
2023-03-05T00:41:25.318Z,58.65
2023-03-05T00:42:25.314Z,58.17
2023-03-05T00:43:25.299Z,59.14
2023-03-05T00:44:25.318Z,58.65
2023-03-05T00:45:25.301Z,57.69
2023-03-05T00:46:25.358Z,57.85
2023-03-05T00:47:25.297Z,57.36
2023-03-05T00:48:25.279Z,60.59
2023-03-05T00:49:25.250Z,59.46
2023-03-05T00:50:25.250Z,57.20
2023-03-05T00:51:25.235Z,57.36
2023-03-05T00:52:25.279Z,58.49
2023-03-05T00:53:25.211Z,55.75
2023-03-05T00:54:25.223Z,55.75
2023-03-05T00:55:25.225Z,59.46
2023-03-05T00:56:25.227Z,57.52
2023-03-05T00:57:25.212Z,58.33
2023-03-05T00:58:25.175Z,56.56
2023-03-05T00:59:25.179Z,56.72
2023-03-05T01:00:26.169Z,58.01
2023-03-05T01:01:25.202Z,58.49
2023-03-05T01:02:25.177Z,58.01
2023-03-05T01:03:25.135Z,59.62
2023-03-05T01:04:25.137Z,54.30
2023-03-05T01:05:25.135Z,54.79
2023-03-05T01:06:25.114Z,57.04
2023-03-05T01:07:25.123Z,58.97
2023-03-05T01:08:25.085Z,61.07
2023-03-05T01:09:25.094Z,58.33
2023-03-05T01:10:25.069Z,58.49
2023-03-05T01:11:25.053Z,58.65
2023-03-05T01:12:25.063Z,58.01
2023-03-05T01:13:25.042Z,54.62
2023-03-05T01:14:25.029Z,58.17
2023-03-05T01:15:25.026Z,57.69
2023-03-05T01:16:25.088Z,57.36
2023-03-05T01:17:25.048Z,58.97
2023-03-05T01:18:25.004Z,58.33
2023-03-05T01:19:24.989Z,58.65
2023-03-05T01:20:24.997Z,59.94
2023-03-05T01:21:25.004Z,61.07
2023-03-05T01:22:24.960Z,57.04
2023-03-05T01:23:24.964Z,58.97
2023-03-05T01:24:24.952Z,57.85
2023-03-05T01:25:24.943Z,56.56
2023-03-05T01:26:24.955Z,54.62
2023-03-05T01:27:24.925Z,53.82
2023-03-05T01:28:24.922Z,58.49
2023-03-05T01:29:24.920Z,60.10
2023-03-05T01:30:24.914Z,53.33
2023-03-05T01:31:24.996Z,55.27
2023-03-05T01:32:24.949Z,60.26
2023-03-05T01:33:24.870Z,56.88
2023-03-05T01:34:24.865Z,56.88
2023-03-05T01:35:24.891Z,57.04
2023-03-05T01:36:24.873Z,58.33
2023-03-05T01:37:24.839Z,56.56
2023-03-05T01:38:24.850Z,60.59
2023-03-05T01:39:24.831Z,55.75
2023-03-05T01:40:24.830Z,54.46
2023-03-05T01:41:24.856Z,55.91
2023-03-05T01:42:24.841Z,58.97
2023-03-05T01:43:24.786Z,52.53
2023-03-05T01:44:24.773Z,53.50
2023-03-05T01:45:24.811Z,54.62
2023-03-05T01:46:24.772Z,55.91
2023-03-05T01:47:24.772Z,58.01
2023-03-05T01:48:24.822Z,58.33
2023-03-05T01:49:24.744Z,58.33
2023-03-05T01:50:24.747Z,55.91
2023-03-05T01:51:24.730Z,58.33
2023-03-05T01:52:24.741Z,57.85
2023-03-05T01:53:24.706Z,57.69
2023-03-05T01:54:24.693Z,54.30
2023-03-05T01:55:25.727Z,58.01
2023-03-05T01:56:24.687Z,56.24
2023-03-05T01:57:24.696Z,55.59
2023-03-05T01:58:24.663Z,58.33
2023-03-05T01:59:24.659Z,54.79
2023-03-05T02:00:24.655Z,55.75
2023-03-05T02:01:24.701Z,57.52
2023-03-05T02:02:24.639Z,58.01
2023-03-05T02:03:24.631Z,57.04
2023-03-05T02:04:24.643Z,57.52
2023-03-05T02:05:24.614Z,54.14
2023-03-05T02:06:24.596Z,55.75
2023-03-05T02:07:24.651Z,57.85
2023-03-05T02:08:24.584Z,54.62
2023-03-05T02:09:24.572Z,56.72
2023-03-05T02:10:24.612Z,56.72
2023-03-05T02:11:24.621Z,56.07
2023-03-05T02:12:24.604Z,55.91
2023-03-05T02:13:24.545Z,53.17
2023-03-05T02:14:24.532Z,55.43
2023-03-05T02:15:25.519Z,54.30
2023-03-05T02:16:24.571Z,55.43
2023-03-05T02:17:24.534Z,53.33
2023-03-05T02:18:24.491Z,53.98
2023-03-05T02:19:24.478Z,54.79
2023-03-05T02:20:24.470Z,55.27
2023-03-05T02:21:24.465Z,52.69
2023-03-05T02:22:24.474Z,56.07
2023-03-05T02:23:24.467Z,55.75
2023-03-05T02:24:24.433Z,55.43
2023-03-05T02:25:24.424Z,53.01
2023-03-05T02:26:24.444Z,54.14
2023-03-05T02:27:24.416Z,53.98
2023-03-05T02:28:24.448Z,55.91
2023-03-05T02:29:24.423Z,55.59
2023-03-05T02:30:24.400Z,56.88
2023-03-05T02:31:24.412Z,53.66
2023-03-05T02:32:24.405Z,54.46
2023-03-05T02:33:24.409Z,54.14
2023-03-05T02:34:24.361Z,57.20
2023-03-05T02:35:24.426Z,54.62
2023-03-05T02:36:24.352Z,55.43
2023-03-05T02:37:24.337Z,56.88
2023-03-05T02:38:24.360Z,54.95
2023-03-05T02:39:24.317Z,52.05
2023-03-05T02:40:24.304Z,53.82
2023-03-05T02:41:24.311Z,54.62
2023-03-05T02:42:24.299Z,54.79
2023-03-05T02:43:24.293Z,55.75
2023-03-05T02:44:24.274Z,55.91
2023-03-05T02:45:24.289Z,55.91
2023-03-05T02:46:24.266Z,53.98
2023-03-05T02:47:24.286Z,55.59
2023-03-05T02:48:24.256Z,54.79
2023-03-05T02:49:24.233Z,56.07
2023-03-05T02:50:24.231Z,53.82
2023-03-05T02:51:24.217Z,54.14
2023-03-05T02:52:24.202Z,53.66
2023-03-05T02:53:24.219Z,53.17
2023-03-05T02:54:24.179Z,51.40
2023-03-05T02:55:25.179Z,53.33
2023-03-05T02:56:24.196Z,53.33
2023-03-05T02:57:25.252Z,53.50
2023-03-05T02:58:24.174Z,53.82
2023-03-05T02:59:24.177Z,51.56
2023-03-05T03:00:24.138Z,53.50
2023-03-05T03:01:24.249Z,54.79
2023-03-05T03:02:24.128Z,56.07
2023-03-05T03:03:24.155Z,56.40
2023-03-05T03:04:24.105Z,55.75
2023-03-05T03:05:24.086Z,55.27
2023-03-05T03:06:24.096Z,54.62
2023-03-05T03:07:24.071Z,54.30
2023-03-05T03:08:24.089Z,56.40
2023-03-05T03:09:24.060Z,54.30
2023-03-05T03:10:24.066Z,54.62
2023-03-05T03:11:24.057Z,54.95
2023-03-05T03:12:24.045Z,54.46
2023-03-05T03:13:24.038Z,53.66
2023-03-05T03:14:24.045Z,54.46
2023-03-05T03:15:24.015Z,54.30
2023-03-05T03:16:24.055Z,55.75
2023-03-05T03:17:24.135Z,53.82
2023-03-05T03:18:24.015Z,54.46
2023-03-05T03:19:23.989Z,53.33
2023-03-05T03:20:23.967Z,53.98
2023-03-05T03:21:23.985Z,54.79
2023-03-05T03:22:23.955Z,53.66
2023-03-05T03:23:24.068Z,53.01
2023-03-05T03:24:23.943Z,56.24
2023-03-05T03:25:23.933Z,54.46
2023-03-05T03:26:23.932Z,54.95
2023-03-05T03:27:23.919Z,55.11
2023-03-05T03:28:23.933Z,54.46
2023-03-05T03:29:23.919Z,54.62
2023-03-05T03:30:23.898Z,55.11
2023-03-05T03:31:23.920Z,54.46
2023-03-05T03:32:23.907Z,56.56
2023-03-05T03:33:24.904Z,55.11
2023-03-05T03:34:23.866Z,54.14
2023-03-05T03:35:23.890Z,55.43
2023-03-05T03:36:23.855Z,53.33
2023-03-05T03:37:23.849Z,55.91
2023-03-05T03:38:23.873Z,55.43
2023-03-05T03:39:23.843Z,57.52
2023-03-05T03:40:23.817Z,56.56
2023-03-05T03:41:23.824Z,56.07
2023-03-05T03:42:23.805Z,53.98
2023-03-05T03:43:23.849Z,53.82
2023-03-05T03:44:23.783Z,57.52
2023-03-05T03:45:23.799Z,55.43
2023-03-05T03:46:23.779Z,56.72
2023-03-05T03:47:23.759Z,57.36
2023-03-05T03:48:23.770Z,55.11
2023-03-05T03:49:23.750Z,57.36
2023-03-05T03:50:23.748Z,57.36
2023-03-05T03:51:23.815Z,55.75
2023-03-05T03:52:23.722Z,53.66
2023-03-05T03:53:23.749Z,54.62
2023-03-05T03:54:23.713Z,54.46
2023-03-05T03:55:23.693Z,52.05
2023-03-05T03:56:23.694Z,53.01
2023-03-05T03:57:23.672Z,55.11
2023-03-05T03:58:23.700Z,53.50
2023-03-05T03:59:23.673Z,53.33
2023-03-05T04:00:23.673Z,52.85
2023-03-05T04:01:23.648Z,51.72
2023-03-05T04:02:23.698Z,54.14
2023-03-05T04:03:23.650Z,55.27
2023-03-05T04:04:23.703Z,54.30
2023-03-05T04:05:23.618Z,54.79
2023-03-05T04:06:23.604Z,59.46
2023-03-05T04:07:23.605Z,54.79
2023-03-05T04:08:23.617Z,55.27
2023-03-05T04:09:23.592Z,55.27
2023-03-05T04:10:23.581Z,53.50
2023-03-05T04:11:23.561Z,57.04
2023-03-05T04:12:23.576Z,54.79
2023-03-05T04:13:23.626Z,55.11
2023-03-05T04:14:23.554Z,57.85
2023-03-05T04:15:23.548Z,57.04
2023-03-05T04:16:23.571Z,58.97
2023-03-05T04:17:23.512Z,57.52
2023-03-05T04:18:23.545Z,54.79
2023-03-05T04:19:23.508Z,55.75
2023-03-05T04:20:23.493Z,57.69
2023-03-05T04:21:23.491Z,56.72
2023-03-05T04:22:23.478Z,57.36
2023-03-05T04:23:23.505Z,58.49
2023-03-05T04:24:23.466Z,57.04
2023-03-05T04:25:23.470Z,58.33
2023-03-05T04:26:23.451Z,55.75
2023-03-05T04:27:23.454Z,58.33
2023-03-05T04:28:23.448Z,56.40
2023-03-05T04:29:23.433Z,57.20
2023-03-05T04:30:23.418Z,58.81
2023-03-05T04:31:23.437Z,58.33
2023-03-05T04:32:23.476Z,57.36
2023-03-05T04:33:23.402Z,55.11
2023-03-05T04:34:23.372Z,55.43
2023-03-05T04:35:23.381Z,56.40
2023-03-05T04:36:23.364Z,56.88
2023-03-05T04:37:23.338Z,57.36
2023-03-05T04:38:23.351Z,57.20
2023-03-05T04:39:23.319Z,56.88
2023-03-05T04:40:23.315Z,57.85
2023-03-05T04:41:23.313Z,57.04
2023-03-05T04:42:23.290Z,57.20
2023-03-05T04:43:23.319Z,58.49
2023-03-05T04:44:23.352Z,59.94
2023-03-05T04:45:23.269Z,58.81
2023-03-05T04:46:23.324Z,58.65
2023-03-05T04:47:23.244Z,56.24
2023-03-05T04:48:23.256Z,56.88
2023-03-05T04:49:23.242Z,58.33
2023-03-05T04:50:23.230Z,54.79
2023-03-05T04:51:23.207Z,56.88
2023-03-05T04:52:23.223Z,55.75
2023-03-05T04:53:23.218Z,58.49
2023-03-05T04:54:23.178Z,55.75
2023-03-05T04:55:23.167Z,56.88
2023-03-05T04:56:23.158Z,58.33
2023-03-05T04:57:24.075Z,58.97
2023-03-05T04:58:24.169Z,56.24
2023-03-05T04:59:23.145Z,55.27
2023-03-05T05:00:23.171Z,57.36
2023-03-05T05:01:23.145Z,59.30
2023-03-05T05:02:23.110Z,57.36
2023-03-05T05:03:23.119Z,57.04
2023-03-05T05:04:23.083Z,57.52
2023-03-05T05:05:23.139Z,57.85
2023-03-05T05:06:23.068Z,56.56
2023-03-05T05:07:23.059Z,58.33
2023-03-05T05:08:24.067Z,57.36
2023-03-05T05:09:23.043Z,57.36
2023-03-05T05:10:23.039Z,57.69
2023-03-05T05:11:23.022Z,56.56
2023-03-05T05:12:23.022Z,57.52
2023-03-05T05:13:23.037Z,58.97
2023-03-05T05:14:23.006Z,59.62
2023-03-05T05:15:22.987Z,58.33
2023-03-05T05:16:23.075Z,58.65
2023-03-05T05:17:22.971Z,58.97
2023-03-05T05:18:22.984Z,60.42
2023-03-05T05:19:23.018Z,60.10
2023-03-05T05:20:23.027Z,59.78
2023-03-05T05:21:22.957Z,59.30
2023-03-05T05:22:22.929Z,57.04
2023-03-05T05:23:23.008Z,60.42
2023-03-05T05:24:22.930Z,58.97
2023-03-05T05:25:22.911Z,58.81
2023-03-05T05:26:22.903Z,58.01
2023-03-05T05:27:22.880Z,59.62
2023-03-05T05:28:22.906Z,59.30
2023-03-05T05:29:22.879Z,57.36
2023-03-05T05:30:22.865Z,55.43
2023-03-05T05:31:22.879Z,58.81
2023-03-05T05:32:22.965Z,59.46
2023-03-05T05:33:22.904Z,59.30
2023-03-05T05:34:22.834Z,58.01
2023-03-05T05:35:22.878Z,58.97
2023-03-05T05:36:22.862Z,59.94
2023-03-05T05:37:22.799Z,58.33
2023-03-05T05:38:22.812Z,55.27
2023-03-05T05:39:22.777Z,54.30
2023-03-05T05:40:22.786Z,57.52
2023-03-05T05:41:22.764Z,57.85
2023-03-05T05:42:22.758Z,58.01
2023-03-05T05:43:22.769Z,59.62
2023-03-05T05:44:22.747Z,57.52
2023-03-05T05:45:22.753Z,57.85
2023-03-05T05:46:22.907Z,59.62
2023-03-05T05:47:22.716Z,59.14
2023-03-05T05:48:22.728Z,58.17
2023-03-05T05:49:22.694Z,56.24
2023-03-05T05:50:22.706Z,58.97
2023-03-05T05:51:22.687Z,61.07
2023-03-05T05:52:22.671Z,58.81
2023-03-05T05:53:22.668Z,58.97
2023-03-05T05:54:22.677Z,58.97
2023-03-05T05:55:22.639Z,57.20
2023-03-05T05:56:22.634Z,57.52
2023-03-05T05:57:22.629Z,59.46
2023-03-05T05:58:22.621Z,57.04
2023-03-05T05:59:22.638Z,57.69
2023-03-05T06:00:22.599Z,59.46
2023-03-05T06:01:22.604Z,60.75
2023-03-05T06:02:22.598Z,58.97
2023-03-05T06:03:22.601Z,55.91
2023-03-05T06:04:22.586Z,56.72
2023-03-05T06:05:22.553Z,58.97
2023-03-05T06:06:22.545Z,56.40
2023-03-05T06:07:22.536Z,57.36
2023-03-05T06:08:22.527Z,57.85
2023-03-05T06:09:22.540Z,56.07
2023-03-05T06:10:22.579Z,59.30
2023-03-05T06:11:22.501Z,58.17
2023-03-05T06:12:22.492Z,59.46
2023-03-05T06:13:22.491Z,53.98
2023-03-05T06:14:22.519Z,57.52
2023-03-05T06:15:22.477Z,59.46
2023-03-05T06:16:22.507Z,58.49
2023-03-05T06:17:30.422Z,58.01
2023-03-05T06:18:24.443Z,60.59
2023-03-05T06:19:22.459Z,59.14
2023-03-05T06:20:22.433Z,58.81
2023-03-05T06:21:22.432Z,58.49
2023-03-05T06:22:23.408Z,57.69
2023-03-05T06:23:22.404Z,58.49
2023-03-05T06:24:22.408Z,57.69
2023-03-05T06:25:22.390Z,61.07
2023-03-05T06:26:22.382Z,55.43
2023-03-05T06:27:22.373Z,60.26
2023-03-05T06:28:22.361Z,60.26
2023-03-05T06:29:22.374Z,60.59
2023-03-05T06:30:22.359Z,62.04
2023-03-05T06:31:22.337Z,55.91
2023-03-05T06:32:22.365Z,58.17
2023-03-05T06:33:22.316Z,59.46
2023-03-05T06:34:22.336Z,61.39
2023-03-05T06:35:22.351Z,62.20
2023-03-05T06:36:22.300Z,59.62
2023-03-05T06:37:22.289Z,58.33
2023-03-05T06:38:22.278Z,60.42
2023-03-05T06:39:22.320Z,62.68
2023-03-05T06:40:22.264Z,60.59
2023-03-05T06:41:22.265Z,59.14
2023-03-05T06:42:22.240Z,62.04
2023-03-05T06:43:22.246Z,60.42
2023-03-05T06:44:22.242Z,62.68
2023-03-05T06:45:22.218Z,62.84
2023-03-05T06:46:22.258Z,62.36
2023-03-05T06:47:22.198Z,62.52
2023-03-05T06:48:22.209Z,60.75
2023-03-05T06:49:22.204Z,60.42
2023-03-05T06:50:22.185Z,61.07
2023-03-05T06:51:22.162Z,61.87
2023-03-05T06:52:22.149Z,62.36
2023-03-05T06:53:22.159Z,60.26
2023-03-05T06:54:22.156Z,61.71
2023-03-05T06:55:22.138Z,60.75
2023-03-05T06:56:22.130Z,61.87
2023-03-05T06:57:22.112Z,61.39
2023-03-05T06:58:22.101Z,60.26
2023-03-05T06:59:22.117Z,60.26
2023-03-05T07:00:22.091Z,58.33
2023-03-05T07:01:22.130Z,59.46
2023-03-05T07:02:23.161Z,60.75
2023-03-05T07:03:22.062Z,61.07
2023-03-05T07:04:22.072Z,61.39
2023-03-05T07:05:22.044Z,61.07
2023-03-05T07:06:22.041Z,61.87
2023-03-05T07:07:22.021Z,62.04
2023-03-05T07:08:22.025Z,60.10
2023-03-05T07:09:22.105Z,61.39
2023-03-05T07:10:22.006Z,63.16
2023-03-05T07:11:22.002Z,62.52
2023-03-05T07:12:22.009Z,61.87
2023-03-05T07:13:21.995Z,61.55
2023-03-05T07:14:55.805Z,59.94
2023-03-05T07:15:22.059Z,60.26
2023-03-05T07:16:21.995Z,62.04
2023-03-05T07:17:21.946Z,61.87
2023-03-05T07:18:21.944Z,61.07
2023-03-05T07:19:21.960Z,59.78
2023-03-05T07:20:21.931Z,59.30
2023-03-05T07:21:21.923Z,60.75
2023-03-05T07:22:21.904Z,60.75
2023-03-05T07:23:21.906Z,63.33
2023-03-05T07:24:21.910Z,62.04
2023-03-05T07:25:21.880Z,61.55
2023-03-05T07:26:21.876Z,61.07
2023-03-05T07:27:21.862Z,59.94
2023-03-05T07:28:21.857Z,61.07
2023-03-05T07:29:21.880Z,61.87
2023-03-05T07:30:21.840Z,60.59
2023-03-05T07:31:21.955Z,60.10
2023-03-05T07:32:21.874Z,60.59
2023-03-05T07:33:21.817Z,60.42
2023-03-05T07:34:21.833Z,60.59
2023-03-05T07:35:21.851Z,61.23
2023-03-05T07:36:21.818Z,62.04
2023-03-05T07:37:21.801Z,62.52
2023-03-05T07:38:21.781Z,61.39
2023-03-05T07:39:21.781Z,61.71
2023-03-05T07:40:21.758Z,60.10
2023-03-05T07:41:21.748Z,62.84
2023-03-05T07:42:21.815Z,61.55
2023-03-05T07:43:21.726Z,61.55
2023-03-05T07:44:21.749Z,63.00
2023-03-05T07:45:21.715Z,62.04
2023-03-05T07:46:21.776Z,61.55
2023-03-05T07:47:21.696Z,61.71
2023-03-05T07:48:21.704Z,61.39
2023-03-05T07:49:21.706Z,61.55
2023-03-05T07:50:21.679Z,58.97
2023-03-05T07:51:21.666Z,61.55
2023-03-05T07:52:21.648Z,59.78
2023-03-05T07:53:21.642Z,60.59
2023-03-05T07:54:21.675Z,60.91
2023-03-05T07:55:21.634Z,59.94
2023-03-05T07:56:21.640Z,60.75
2023-03-05T07:57:21.606Z,60.42
2023-03-05T07:58:21.596Z,59.78
2023-03-05T07:59:21.619Z,59.94
2023-03-05T08:00:21.582Z,59.62
2023-03-05T08:01:21.591Z,61.39
2023-03-05T08:02:21.659Z,60.59
2023-03-05T08:03:21.558Z,60.91
2023-03-05T08:04:21.621Z,61.23
2023-03-05T08:05:21.533Z,60.91
2023-03-05T08:06:21.529Z,59.94
2023-03-05T08:07:21.518Z,59.62
2023-03-05T08:08:21.520Z,59.46
2023-03-05T08:09:21.521Z,60.75
2023-03-05T08:10:21.504Z,61.87
2023-03-05T08:11:21.487Z,63.00
2023-03-05T08:12:21.483Z,60.10
2023-03-05T08:13:21.459Z,59.62
2023-03-05T08:14:21.470Z,61.07
2023-03-05T08:15:21.442Z,61.87
2023-03-05T08:16:21.466Z,61.55
2023-03-05T08:17:21.430Z,61.71
2023-03-05T08:18:21.428Z,62.04
2023-03-05T08:19:21.426Z,63.00
2023-03-05T08:20:21.400Z,62.36
2023-03-05T08:21:21.394Z,60.91
2023-03-05T08:22:21.376Z,61.87
2023-03-05T08:23:21.374Z,62.68
2023-03-05T08:24:21.403Z,62.36
2023-03-05T08:25:21.360Z,63.16
2023-03-05T08:26:21.358Z,62.04
2023-03-05T08:27:21.352Z,63.00
2023-03-05T08:28:21.320Z,62.36
2023-03-05T08:29:21.332Z,62.84
2023-03-05T08:30:21.315Z,63.49
2023-03-05T08:31:21.395Z,64.61
2023-03-05T08:35:06.960Z,64.29
2023-03-05T08:36:06.930Z,64.78
2023-03-05T08:37:06.894Z,63.49
2023-03-05T08:38:06.937Z,65.58
2023-03-05T08:39:06.900Z,63.81
2023-03-05T08:40:06.929Z,65.58
2023-03-05T08:41:06.875Z,64.61
2023-03-05T08:42:08.899Z,65.26
2023-03-05T08:43:06.854Z,66.23
2023-03-05T08:44:06.870Z,66.71
2023-03-05T08:45:06.853Z,64.45
2023-03-05T08:46:06.853Z,65.10
2023-03-05T08:47:06.829Z,65.58
2023-03-05T08:48:06.814Z,66.06
2023-03-05T08:49:06.811Z,67.68
2023-03-05T08:50:06.842Z,65.58
2023-03-05T08:51:06.788Z,66.55
2023-03-05T08:52:06.782Z,65.90
2023-03-05T08:53:06.773Z,66.87
2023-03-05T08:54:06.782Z,67.19
2023-03-05T08:55:06.764Z,67.35
2023-03-05T08:56:06.756Z,67.35
2023-03-05T08:57:06.748Z,65.58
2023-03-05T08:58:06.724Z,65.26
2023-03-05T08:59:07.838Z,66.39
2023-03-05T09:00:07.862Z,66.87
2023-03-05T09:01:07.843Z,65.74
2023-03-05T09:02:07.893Z,65.58
2023-03-05T09:03:07.962Z,66.23
2023-03-05T09:04:07.791Z,67.35
2023-03-05T09:05:07.843Z,65.74
2023-03-05T09:06:07.785Z,65.58
2023-03-05T09:07:07.770Z,65.42
2023-03-05T09:08:07.765Z,63.33
2023-03-05T09:09:07.756Z,63.97
2023-03-05T09:10:07.791Z,64.94
2023-03-05T09:11:07.730Z,63.81
2023-03-05T09:12:07.747Z,65.10
2023-03-05T09:13:07.710Z,65.74
2023-03-05T09:14:07.694Z,65.90
2023-03-05T09:15:07.740Z,65.58
2023-03-05T09:16:07.722Z,65.26
2023-03-05T09:17:07.672Z,64.78
2023-03-05T09:18:07.666Z,62.36
2023-03-05T09:19:07.642Z,65.26
2023-03-05T09:20:07.662Z,65.58
2023-03-05T09:21:07.621Z,65.74
2023-03-05T09:22:07.605Z,65.26
2023-03-05T09:23:07.588Z,64.45
2023-03-05T09:24:07.596Z,65.42
2023-03-05T09:25:07.604Z,66.87
2023-03-05T09:26:07.573Z,64.13
2023-03-05T09:27:07.572Z,64.13
2023-03-05T09:28:07.548Z,64.29
2023-03-05T09:29:07.548Z,64.78
2023-03-05T09:30:07.551Z,63.33
2023-03-05T09:31:07.517Z,64.29
2023-03-05T09:32:07.568Z,62.68
2023-03-05T09:33:07.516Z,63.33
2023-03-05T09:34:07.495Z,64.78
2023-03-05T09:35:07.502Z,64.78
2023-03-05T09:36:07.474Z,64.94
2023-03-05T09:37:07.459Z,66.06
2023-03-05T09:38:07.450Z,65.90
2023-03-05T09:39:07.444Z,66.71
2023-03-05T09:40:07.450Z,65.74
2023-03-05T09:41:07.449Z,65.90
2023-03-05T09:42:09.842Z,66.23
2023-03-05T09:43:07.398Z,65.74
2023-03-05T09:44:07.388Z,65.58
2023-03-05T09:45:07.396Z,65.58
2023-03-05T09:46:07.415Z,65.58
2023-03-05T09:47:07.363Z,65.58
2023-03-05T09:48:07.344Z,64.61
2023-03-05T09:49:07.340Z,64.13
2023-03-05T09:50:07.348Z,66.06
2023-03-05T09:51:07.335Z,66.06
2023-03-05T09:52:07.344Z,66.39
2023-03-05T09:53:07.295Z,64.78
2023-03-05T09:54:07.329Z,65.58
2023-03-05T09:55:07.292Z,66.87
2023-03-05T09:56:07.273Z,67.51
2023-03-05T09:57:07.275Z,68.00
2023-03-05T09:58:07.262Z,65.26
2023-03-05T09:59:07.242Z,64.45
2023-03-05T10:00:07.258Z,67.19
2023-03-05T10:01:07.267Z,67.84
2023-03-05T10:02:07.212Z,67.35
2023-03-05T10:03:07.254Z,67.19
2023-03-05T10:04:07.298Z,66.39
2023-03-05T10:05:07.212Z,66.23
2023-03-05T10:06:07.168Z,67.03
2023-03-05T10:07:08.770Z,67.84
2023-03-05T10:08:08.156Z,66.87
2023-03-05T10:09:08.162Z,67.84
2023-03-05T10:10:07.146Z,67.51
2023-03-05T10:11:07.116Z,67.68
2023-03-05T10:12:07.111Z,66.87
2023-03-05T10:13:07.109Z,68.48
2023-03-05T10:14:07.089Z,66.55
2023-03-05T10:15:07.139Z,66.55
2023-03-05T10:16:07.076Z,66.55
2023-03-05T10:17:07.065Z,66.87
2023-03-05T10:18:07.056Z,67.03
2023-03-05T10:19:07.038Z,67.51
2023-03-05T10:20:07.053Z,68.00
2023-03-05T10:21:07.014Z,68.32
2023-03-05T10:22:07.005Z,67.51
2023-03-05T10:23:06.990Z,67.84
2023-03-05T10:24:07.006Z,66.06
2023-03-05T10:25:07.005Z,68.64
2023-03-05T10:26:06.976Z,69.29
2023-03-05T10:27:06.977Z,69.13
2023-03-05T10:28:06.947Z,67.84
2023-03-05T10:29:06.943Z,67.68
2023-03-05T10:30:06.963Z,68.80
2023-03-05T10:31:06.913Z,67.84
2023-03-05T10:32:07.118Z,66.39
2023-03-05T10:33:06.899Z,68.00
2023-03-05T10:34:06.899Z,66.87
2023-03-05T10:35:06.903Z,66.06
2023-03-05T10:36:06.880Z,66.39
2023-03-05T10:37:06.858Z,65.26
2023-03-05T10:38:06.851Z,66.71
2023-03-05T10:39:06.828Z,66.55
2023-03-05T10:40:06.834Z,66.71
2023-03-05T10:41:06.827Z,65.58
2023-03-05T10:42:06.810Z,66.23
2023-03-05T10:43:06.802Z,66.39
2023-03-05T10:44:06.786Z,65.26
2023-03-05T10:45:06.776Z,65.74
2023-03-05T10:46:06.848Z,67.03
2023-03-05T10:47:06.744Z,65.58
2023-03-05T10:48:06.742Z,65.58
2023-03-05T10:49:06.729Z,64.94
2023-03-05T10:50:06.715Z,65.26
2023-03-05T10:51:06.724Z,65.42
2023-03-05T10:52:06.719Z,66.71
2023-03-05T10:53:06.693Z,65.42
2023-03-05T10:54:06.681Z,66.06
2023-03-05T10:55:06.680Z,66.23
2023-03-05T10:56:06.790Z,66.87
2023-03-05T10:57:06.650Z,64.94
2023-03-05T10:58:06.638Z,67.03
2023-03-05T10:59:06.623Z,67.68
2023-03-05T11:00:06.637Z,65.90
2023-03-05T11:01:06.724Z,65.58
2023-03-05T11:02:06.604Z,66.87
2023-03-05T11:03:06.591Z,65.10
2023-03-05T11:04:06.568Z,64.78
2023-03-05T11:05:06.558Z,64.45
2023-03-05T11:06:06.570Z,64.61
2023-03-05T11:07:06.559Z,64.61
2023-03-05T11:08:06.521Z,63.00
2023-03-05T11:09:06.512Z,64.78
2023-03-05T11:10:06.510Z,66.23
2023-03-05T11:11:06.527Z,64.29
2023-03-05T11:12:06.489Z,65.58
2023-03-05T11:13:06.478Z,67.03
2023-03-05T11:14:06.468Z,66.06
2023-03-05T11:15:06.449Z,67.19
2023-03-05T11:16:06.574Z,66.71
2023-03-05T11:17:06.421Z,67.84
2023-03-05T11:18:06.413Z,66.87
2023-03-05T11:19:06.400Z,67.35
2023-03-05T11:20:06.391Z,67.51
2023-03-05T11:21:06.403Z,68.64
2023-03-05T11:22:06.379Z,67.03
2023-03-05T11:23:06.359Z,66.55
2023-03-05T11:24:06.350Z,68.80
2023-03-05T11:25:06.341Z,68.32
2023-03-05T11:26:06.365Z,67.84
2023-03-05T11:27:06.354Z,67.19
2023-03-05T11:28:06.313Z,67.51
2023-03-05T11:29:06.299Z,66.87
2023-03-05T11:30:06.291Z,66.87
2023-03-05T11:31:06.381Z,65.74
2023-03-05T11:32:06.314Z,66.39
2023-03-05T11:33:06.257Z,66.71
2023-03-05T11:34:06.254Z,68.00
2023-03-05T11:35:06.240Z,67.84
2023-03-05T11:36:06.252Z,66.55
2023-03-05T11:37:06.271Z,66.23
2023-03-05T11:38:06.205Z,66.39
2023-03-05T11:39:06.208Z,66.55
2023-03-05T11:40:06.190Z,65.26
2023-03-05T11:41:06.213Z,65.90
2023-03-05T11:42:06.168Z,65.42
2023-03-05T11:43:06.160Z,65.58
2023-03-05T11:44:06.174Z,65.74
2023-03-05T11:45:06.138Z,65.74
2023-03-05T11:46:06.208Z,65.90
2023-03-05T11:47:06.127Z,66.39
2023-03-05T11:48:06.105Z,67.84
2023-03-05T11:49:06.098Z,67.19
2023-03-05T11:50:06.082Z,66.71
2023-03-05T11:51:06.127Z,67.84
2023-03-05T11:52:06.079Z,66.23
2023-03-05T11:53:06.056Z,66.06
2023-03-05T11:54:06.056Z,67.03
2023-03-05T11:55:06.025Z,65.90
2023-03-05T11:56:06.015Z,65.26
2023-03-05T11:57:06.025Z,65.42
2023-03-05T11:58:06.010Z,63.97
2023-03-05T11:59:05.978Z,63.16
2023-03-05T12:00:05.982Z,63.97
2023-03-05T12:01:05.979Z,65.90
2023-03-05T12:02:05.947Z,66.55
2023-03-05T12:03:05.959Z,66.87
2023-03-05T12:04:06.976Z,67.35
2023-03-05T12:05:05.916Z,65.42
2023-03-05T12:06:05.929Z,66.06
2023-03-05T12:07:05.909Z,66.06
2023-03-05T12:08:05.934Z,67.03
2023-03-05T12:09:05.866Z,67.84
2023-03-05T12:10:05.863Z,66.39
2023-03-05T12:11:05.880Z,65.10
2023-03-05T12:12:05.838Z,65.74
2023-03-05T12:13:05.826Z,64.94
2023-03-05T12:14:05.838Z,66.87
2023-03-05T12:15:05.808Z,68.32
2023-03-05T12:16:05.854Z,66.87
2023-03-05T12:17:05.782Z,64.94
2023-03-05T12:18:05.766Z,65.26
2023-03-05T12:19:05.758Z,66.23
2023-03-05T12:20:05.765Z,68.32
2023-03-05T12:21:05.753Z,67.19
2023-03-05T12:22:05.744Z,66.23
2023-03-05T12:23:05.710Z,65.90
2023-03-05T12:24:05.698Z,66.39
2023-03-05T12:25:05.682Z,63.81
2023-03-05T12:26:05.671Z,65.26
2023-03-05T12:27:05.688Z,65.10
2023-03-05T12:28:05.737Z,66.06
2023-03-05T12:29:05.641Z,67.84
2023-03-05T12:30:05.633Z,66.87
2023-03-05T12:31:05.734Z,65.26
2023-03-05T12:32:05.689Z,66.39
2023-03-05T12:33:05.602Z,67.51
2023-03-05T12:34:05.603Z,68.00
2023-03-05T12:35:05.585Z,64.94
2023-03-05T12:36:05.617Z,64.94
2023-03-05T12:37:05.556Z,64.45
2023-03-05T12:38:17.358Z,65.90
2023-03-05T12:39:07.535Z,66.71
2023-03-05T12:40:05.532Z,65.58
2023-03-05T12:41:05.552Z,64.94
2023-03-05T12:42:05.486Z,65.10
2023-03-05T12:43:06.503Z,66.39
2023-03-05T12:44:05.473Z,65.90
2023-03-05T12:45:05.475Z,65.10
2023-03-05T12:46:05.480Z,68.48
2023-03-05T12:47:05.441Z,67.51
2023-03-05T12:48:05.448Z,67.84
2023-03-05T12:49:05.417Z,67.84
2023-03-05T12:50:05.408Z,68.16
2023-03-05T12:51:05.397Z,69.61
2023-03-05T12:52:05.386Z,67.68
2023-03-05T12:53:05.433Z,67.03
2023-03-05T12:54:05.367Z,67.03
2023-03-05T12:55:05.359Z,68.64